Indian Springs, Nevada Weather observations

Data are for observation ending at time listed.
 Day   Time    Ave.   Ave.  Ave.  Vector   Max.   Stn.    Total    Solar   Ave.  
  of    of     Air    Rel.  Wind   Wind    Wind   Baro.  Precip.   Rad.    Soil  
Year   Day     Temp.  Hum.  Speed  Dir.    Gust   Pres.                    Temp. 
2014   (PST)    F      %     mph   deg.    mph     mb.     in.     W/m2     F   
------------------------------------------------------------------------------
 303   13:50   81.7    12    3.4   117     14.5   907.6    0.00     582    63.8
 303   14:00   81.5    12    4.4   116     12.2   907.6    0.00     648    64.2
 303   14:10   80.9    12    7.4   105     16.8   907.5    0.00     611    64.5
 303   14:20   79.9    13    6.4   105     17.4   907.4    0.00     254    64.8
 303   14:30   79.4    13    6.9   104     20.7   907.2    0.00     267    65.2
 303   14:40   78.9    13    7.4   103     16.7   907.0    0.00     211    65.5
 303   14:50   78.8    13    5.9   107     17.2   906.8    0.00     237    65.7
 303   15:00   78.9    13    6.4   107     15.0   906.7    0.00     333    65.9
 303   15:10   79.1    13    6.8   104     15.0   906.6    0.00     341    65.9
 303   15:20   79.2    13    4.6   121     12.5   906.6    0.00     185    66.0
 303   15:30   79.1    13    3.6   110     11.0   906.7    0.00     144    66.0
 303   15:40   78.1    13    4.4   106     12.1   906.6    0.00     128    66.1
 303   15:50   77.4    13    5.7   105     14.0   906.6    0.00     105    66.1
 303   16:00   76.4    14    4.2   109     13.2   906.5    0.00      84    66.1
 303   16:10   75.8    14    5.1   106     12.7   906.3    0.00      49    66.1
 303   16:20   75.3    14    4.8   101      9.5   906.2    0.00      40    66.1
 303   16:30   75.1    14    6.0   101     12.1   906.1    0.00      41    66.0
 303   16:40   74.4    14    5.5   103     10.2   906.0    0.00      19    65.9
 303   16:50   73.9    15    3.2   104     12.0   905.9    0.00       6    65.8
 303   17:00   73.3    15    4.4   105     10.2   905.8    0.00       0    65.7
 303   17:10   72.9    15    3.5   101      7.4   905.6    0.00       0    65.6
 303   17:20   72.5    16    4.0   105      8.8   905.5    0.00       0    65.4
 303   17:30   72.6    16    3.6   103      7.7   905.5    0.00       0    65.3
 303   17:40   72.4    16    3.6   103      7.5   905.4    0.00       0    65.2
 303   17:50   72.4    16    4.3   102      9.6   905.4    0.00       0    65.0
 303   18:00   72.6    16    3.4   108     10.0   905.4    0.00       0    64.9
 303   18:10   72.3    16    1.9   204      5.0   905.6    0.00       0    64.8
 303   18:20   73.4    15    2.2   211      4.2   905.6    0.00       0    64.7
 303   18:30   73.2    15    2.1   184      4.9   905.5    0.00       0    64.5
 303   18:40   73.0    15    2.9   213      5.4   905.5    0.00       0    64.4
 303   18:50   71.4    16    3.4   214      7.9   905.6    0.00       0    64.3
 303   19:00   70.5    17    1.5    18      3.1   905.7    0.00       0    64.1
 303   19:10   70.8    17    1.5   338      3.4   905.8    0.00       0    64.0
 303   19:20   70.9    18    1.9   290      3.8   905.5    0.00       0    63.9
 303   19:30   69.5    19    1.0    57      2.9   905.4    0.00       0    63.8
 303   19:40   68.5    20    0.9     5      2.9   905.3    0.00       0    63.7
 303   19:50   69.0    19    2.0    74      7.1   905.1    0.00       0    63.6
 303   20:00   70.6    18    2.8   104     11.0   904.9    0.00       0    63.5
 303   20:10   70.2    18    1.7   170      5.8   905.1    0.00       0    63.3
 303   20:20   68.0    19    1.7   203      6.9   905.0    0.00       0    63.2
 303   20:30   67.0    19    2.1   194      4.8   905.1    0.00       0    63.1
 303   20:40   67.2    19    1.7   160      3.4   905.1    0.00       0    63.0
 303   20:50   68.4    19    3.0   205      5.3   905.0    0.00       0    62.9
 303   21:00   69.4    18    1.3   190      3.9   904.8    0.00       0    62.8
 303   21:10   67.6    19    1.9   217      2.9   905.0    0.00       0    62.7
 303   21:20   67.3    19    1.8   224      3.3   905.1    0.00       0    62.6
 303   21:30   66.2    21    1.1   124      2.9   905.1    0.00       0    62.5
 303   21:40   65.3    23    0.5     2      1.6   904.8    0.00       0    62.4
 303   21:50   64.5    22    1.6   305      4.4   904.6    0.00       0    62.3
 303   22:00   64.6    22    1.6   277      4.5   904.5    0.00       0    62.2
 303   22:10   64.7    22    1.1   268      3.0   904.2    0.00       0    62.1
 303   22:20   63.9    22    1.8   229      3.2   904.4    0.00       0    62.0
 303   22:30   65.2    20    2.0   244      3.5   904.4    0.00       0    61.9
 303   22:40   64.3    21    2.1   247      3.3   904.4    0.00       0    61.8
 303   22:50   64.3    21    1.7   242      3.2   904.4    0.00       0    61.8
 303   23:00   63.6    22    1.3   253      3.1   904.5    0.00       0    61.7
 303   23:10   62.8    22    1.6   293      4.1   904.6    0.00       0    61.6
 303   23:20   62.1    23    0.9    63      2.6   904.3    0.00       0    61.6
 303   23:30   61.2    24    0.4    50      1.8   904.3    0.00       0    61.5
 303   23:40   61.5    24    0.6   245      1.6   904.2    0.00       0    61.4
 303   23:50   61.8    25    0.5   131      1.9   904.0    0.00       0    61.3
 304    0:00   60.9    26    1.3   209      3.2   904.3    0.00       0    61.2
 304    0:10   62.4    23    1.8   236      3.9   904.0    0.00       0    61.2
 304    0:20   64.0    21    2.5   242      4.7   903.9    0.00       0    61.1
 304    0:30   63.4    22    0.8   224      3.0   904.0    0.00       0    61.0
 304    0:40   61.0    25    1.9   230      4.3   904.2    0.00       0    61.0
 304    0:50   62.9    22    2.0   246      4.0   904.0    0.00       0    60.9
 304    1:00   61.9    23    1.8   241      5.3   903.8    0.00       0    60.8
 304    1:10   60.3    26    1.8    87      4.5   904.0    0.00       0    60.7
 304    1:20   60.1    26    1.0   232      2.0   903.9    0.00       0    60.7
 304    1:30   59.6    26    0.6   192      1.3   903.6    0.00       0    60.6
 304    1:40   58.6    28    0.8   146      3.0   903.4    0.00       0    60.5
 304    1:50   57.4    29    0.6   133      1.6   903.3    0.00       0    60.4
 304    2:00   56.7    30    1.4   307      5.6   903.1    0.00       0    60.2
 304    2:10   56.9    30    0.9   292      3.1   902.9    0.00       0    60.1
 304    2:20   56.6    28    1.8   252      3.2   902.7    0.00       0    60.0
 304    2:30   57.4    27    2.3   250      4.2   902.7    0.00       0    59.9
 304    2:40   57.9    26    2.3   239      3.6   902.7    0.00       0    59.7
 304    2:50   55.5    28    1.3   227      3.1   902.7    0.00       0    59.6
 304    3:00   56.8    27    1.3   233      3.1   902.4    0.00       0    59.5
 304    3:10   57.4    28    1.6   330      3.3   902.3    0.00       0    59.4
 304    3:20   57.0    28    0.9   225      2.1   902.3    0.00       0    59.3
 304    3:30   56.6    28    0.6   201      1.2   902.4    0.00       0    59.2
 304    3:40   55.8    30    0.4   250      1.8   902.4    0.00       0    59.1
 304    3:50   56.5    29    1.8   274      4.7   902.2    0.00       0    59.0
 304    4:00   55.9    29    1.0   223      2.9   902.2    0.00       0    58.9
 304    4:10   55.1    30    1.6   222      5.1   902.1    0.00       0    58.7
 304    4:20   54.3    31    1.7   258      4.5   902.3    0.00       0    58.6
 304    4:30   53.1    33    0.5   119      2.0   902.3    0.00       0    58.5
 304    4:40   52.3    35    0.8   251      3.5   902.3    0.00       0    58.4
 304    4:50   51.7    33    0.9   189      2.6   902.1    0.00       0    58.3
 304    5:00   51.7    34    1.1   241      4.9   902.0    0.00       0    58.2
 304    5:10   52.3    32    1.9   237      4.1   902.0    0.00       0    58.1
 304    5:20   52.1    32    3.8   242      7.0   901.9    0.00       0    58.0
 304    5:30   55.4    30    2.3   254      5.7   901.8    0.00       0    57.9
 304    5:40   56.1    30    1.4   302      4.2   901.9    0.00       0    57.8
 304    5:50   55.3    31    1.1    75      2.9   902.1    0.00       0    57.6
 304    6:00   51.3    35    1.3   105      3.3   902.0    0.00       0    57.5
 304    6:10   50.2    37    0.6   162      2.4   901.9    0.00       1    57.5
 304    6:20   50.4    37    0.5   196      1.9   901.9    0.00       6    57.3
 304    6:30   50.7    37    0.4   120      1.5   901.7    0.00      20    57.2
 304    6:40   51.5    36    0.4   301      1.9   901.8    0.00      20    57.1
 304    6:50   51.5    34    1.1   302      3.1   901.8    0.00      70    57.0
 304    7:00   51.1    33    1.0   277      2.4   902.0    0.00     107    56.9
 304    7:10   52.8    32    1.4   218      2.7   902.0    0.00     177    56.8
 304    7:20   55.6    30    0.9   234      3.1   902.3    0.00     213    56.7
 304    7:30   57.2    29    1.5   273      2.9   902.6    0.00     246    56.6
 304    7:40   58.2    29    1.4   298      2.5   903.0    0.00     277    56.5
 304    7:50   59.5    28    1.1   304      2.6   903.4    0.00     315    56.5
 304    8:00   60.3    27    1.8   272      3.9   903.8    0.00     350    56.5
 304    8:10   61.0    26    2.2   289      5.2   904.1    0.00     382    56.6
 304    8:20   62.5    26    2.0   306      3.6   904.2    0.00     413    56.6
 304    8:30   63.1    26    1.6   324      3.4   904.3    0.00     447    56.7
 304    8:40   63.5    26    1.8   319      3.8   904.4    0.00     475    56.9
 304    8:50   64.2    25    2.2   300      3.7   904.7    0.00     503    57.1
 304    9:00   64.5    24    2.6   299      5.5   904.6    0.00     530    57.3
 304    9:10   65.2    24    2.1   293      3.4   904.8    0.00     558    57.6
 304    9:20   66.3    23    1.8   278      3.9   904.9    0.00     485    57.9
 304    9:30   66.7    23    1.9   288      3.3   904.8    0.00     135    58.3
 304    9:40   67.3    23    1.6   331      3.7   904.9    0.00     445    58.6
 304    9:50   68.0    23    2.1   315      3.6   904.9    0.00     159    59.0
 304   10:00   69.0    22    1.5   333      4.1   904.6    0.00     401    59.5
 304   10:10   69.6    21    1.4   344      3.5   904.4    0.00     182    59.9
 304   10:20   70.1    21    1.6   330      3.8   904.1    0.00     135    60.2
 304   10:30   70.3    20    2.7   298      5.7   903.9    0.00     139    60.5
 304   10:40   71.3    20    2.4   282      5.1   903.7    0.00     124    60.7
 304   10:50   71.7    19    2.9   279      5.8   903.5    0.00      97    60.9
 304   11:00   72.4    19    2.5   294      5.4   903.3    0.00     198    61.1
 304   11:10   73.2    18    2.7   307      5.0   903.0    0.00      90    61.2
 304   11:20   73.8    18    2.1   298      4.6   902.9    0.00      82    61.3
 304   11:30   74.7    18    1.7   308      6.8   902.9    0.00     336    61.4
 304   11:40   74.8    18    2.3   292      4.3   902.8    0.00     753    61.5
 304   11:50   75.8    17    1.5   293      3.9   902.6    0.00     753    61.8
 304   12:00   76.8    16    1.3   338      3.1   902.4    0.00     737    62.1
 304   12:10   77.6    17    2.5    49      9.0   902.6    0.00     744    62.3
 304   12:20   76.9    17    2.1   272      3.8   902.6    0.00     731    62.7
 304   12:30   77.1    17    2.3   272      4.6   902.6    0.00     721    62.9
 304   12:40   77.6    17    2.5   244      5.4   902.3    0.00     673    63.3
 304   12:50   78.5    16    1.8    31      4.7   902.1    0.00     608    63.8
 304   13:00   79.0    16    1.8   272      3.9   901.9    0.00     296    64.2
 304   13:10   78.3    16    2.8   256      4.4   901.8    0.00     527    64.6
 304   13:20   78.8    16    1.6   208      4.6   901.6    0.00     491    65.1
 304   13:30   79.1    16    3.3   151     12.1   901.5    0.00     461    65.4
 304   13:40   78.0    19    5.4   110     14.6   901.3    0.00     484    65.8

Return to Indian Springs, Nevada graphs page.


Western Regional Climate Center,wrcc@dri.edu